createdAt,value
2022-08-03T00:02:23.891Z,99.90
2022-08-03T00:07:26.444Z,99.90
2022-08-03T00:12:28.853Z,99.90
2022-08-03T00:17:31.303Z,99.90
2022-08-03T00:22:53.646Z,99.90
2022-08-03T00:27:56.128Z,99.90
2022-08-03T00:32:59.257Z,99.90
2022-08-03T00:38:01.985Z,99.90
2022-08-03T00:43:07.889Z,99.90
2022-08-03T00:48:19.454Z,99.90
2022-08-03T00:53:36.574Z,99.90
2022-08-03T00:58:39.041Z,99.90
2022-08-03T01:03:41.911Z,99.90
2022-08-03T01:08:50.302Z,99.90
2022-08-03T01:14:18.022Z,99.90
2022-08-03T01:19:40.628Z,99.90
2022-08-03T01:24:58.159Z,99.90
2022-08-03T01:30:04.240Z,99.90
2022-08-03T01:35:12.642Z,99.90
2022-08-03T01:40:16.240Z,99.90
2022-08-03T01:45:20.967Z,99.90
2022-08-03T01:50:27.805Z,99.90
2022-08-03T01:55:33.435Z,99.90
2022-08-03T02:00:37.730Z,99.90
2022-08-03T02:05:41.133Z,99.90
2022-08-03T02:10:46.273Z,99.90
2022-08-03T02:15:49.526Z,99.90
2022-08-03T02:20:52.886Z,99.90
2022-08-03T02:26:01.825Z,99.90
2022-08-03T02:31:12.978Z,99.90
2022-08-03T02:36:18.447Z,99.90
2022-08-03T02:41:25.369Z,99.90
2022-08-03T02:46:33.018Z,99.90
2022-08-03T02:51:37.585Z,99.90
2022-08-03T02:56:41.288Z,99.90
2022-08-03T03:01:45.343Z,99.90
2022-08-03T03:06:49.167Z,99.90
2022-08-03T03:11:53.428Z,99.90
2022-08-03T03:16:58.001Z,99.90
2022-08-03T03:22:02.397Z,99.90
2022-08-03T03:27:05.321Z,99.90
2022-08-03T03:32:08.357Z,99.90
2022-08-03T03:37:13.259Z,99.90
2022-08-03T03:42:16.518Z,99.90
2022-08-03T03:47:19.184Z,99.90
2022-08-03T03:52:35.510Z,99.90
2022-08-03T03:57:38.039Z,99.90
2022-08-03T04:02:40.541Z,99.90
2022-08-03T04:08:13.214Z,99.90
2022-08-03T04:13:17.116Z,99.90
2022-08-03T04:18:20.709Z,99.90
2022-08-03T04:23:27.282Z,99.90
2022-08-03T04:28:32.575Z,99.90
2022-08-03T04:33:38.575Z,99.90
2022-08-03T04:38:54.441Z,99.90
2022-08-03T04:44:00.434Z,99.90
2022-08-03T04:49:03.578Z,99.90
2022-08-03T04:54:07.453Z,99.90
2022-08-03T04:59:10.883Z,99.90
2022-08-03T05:04:13.546Z,99.90
2022-08-03T05:09:46.064Z,99.90
2022-08-03T05:14:39.159Z,99.90
2022-08-03T05:19:41.687Z,99.90
2022-08-03T05:24:44.237Z,99.90
2022-08-03T05:29:47.954Z,99.90
2022-08-03T05:34:50.494Z,99.90
2022-08-03T05:39:52.944Z,99.90
2022-08-03T05:44:55.399Z,99.90
2022-08-03T05:49:58.981Z,99.90
2022-08-03T05:55:01.474Z,99.90
2022-08-03T06:00:07.204Z,99.90
2022-08-03T06:05:13.966Z,99.90
2022-08-03T06:10:37.409Z,99.90
2022-08-03T06:15:38.971Z,99.90
2022-08-03T06:20:41.386Z,99.90
2022-08-03T06:25:44.002Z,99.90
2022-08-03T06:30:46.937Z,99.90
2022-08-03T06:35:52.605Z,99.90
2022-08-03T06:40:55.385Z,99.90
2022-08-03T06:45:57.882Z,99.90
2022-08-03T06:51:00.307Z,99.90
2022-08-03T06:56:04.446Z,99.90
2022-08-03T07:01:06.998Z,99.90
2022-08-03T07:06:09.493Z,99.90
2022-08-03T07:11:11.905Z,99.90
2022-08-03T07:16:14.470Z,99.90
2022-08-03T07:21:17.136Z,99.90
2022-08-03T07:26:19.570Z,99.90
2022-08-03T07:31:22.058Z,99.90
2022-08-03T07:36:25.071Z,99.90
2022-08-03T07:41:27.593Z,99.90
2022-08-03T07:46:30.052Z,99.90
2022-08-03T07:51:32.964Z,99.90
2022-08-03T07:56:35.477Z,99.90
2022-08-03T08:01:38.824Z,99.90
2022-08-03T08:06:41.432Z,99.90
2022-08-03T08:11:44.008Z,99.90
2022-08-03T08:16:48.011Z,99.90
2022-08-03T08:21:53.417Z,99.90
2022-08-03T08:27:04.737Z,99.90
2022-08-03T08:32:08.109Z,99.90
2022-08-03T08:37:10.572Z,99.90
2022-08-03T08:42:13.051Z,99.90
2022-08-03T08:47:16.027Z,99.90
2022-08-03T08:52:29.495Z,99.90
2022-08-03T08:57:43.128Z,99.90
2022-08-03T09:02:46.821Z,99.90
2022-08-03T09:07:50.055Z,99.90
2022-08-03T09:12:53.414Z,99.90
2022-08-03T09:17:57.813Z,99.90
2022-08-03T09:23:51.835Z,99.90
2022-08-03T09:28:58.081Z,99.90
2022-08-03T09:34:10.839Z,99.90
2022-08-03T09:39:19.158Z,99.90
2022-08-03T09:44:34.946Z,99.90
2022-08-03T09:49:41.049Z,99.90
2022-08-03T09:54:43.818Z,99.90
2022-08-03T09:59:46.291Z,99.90
2022-08-03T10:04:51.096Z,99.90
2022-08-03T10:10:31.080Z,99.90
2022-08-03T10:16:21.600Z,99.90
2022-08-03T10:20:59.235Z,99.90
2022-08-03T10:26:04.940Z,99.90
2022-08-03T10:31:09.870Z,99.90
2022-08-03T10:36:14.925Z,99.90
2022-08-03T10:41:19.856Z,99.90
2022-08-03T10:46:22.509Z,99.90
2022-08-03T10:51:30.550Z,99.90
2022-08-03T10:56:51.558Z,99.90
2022-08-03T11:01:59.799Z,99.90
2022-08-03T11:07:23.607Z,99.90
2022-08-03T11:12:32.638Z,99.90
2022-08-03T11:17:46.150Z,99.90
2022-08-03T11:23:01.091Z,99.90
2022-08-03T11:28:27.189Z,99.90
2022-08-03T11:33:30.872Z,99.90
2022-08-03T11:38:33.353Z,99.90
2022-08-03T11:43:37.438Z,99.90
2022-08-03T11:48:43.490Z,99.90
2022-08-03T11:53:47.865Z,99.90
2022-08-03T11:59:15.214Z,99.90
2022-08-03T12:04:16.488Z,99.90
2022-08-03T12:09:21.206Z,99.90
2022-08-03T12:14:48.825Z,97.00
2022-08-03T12:19:46.594Z,98.40
2022-08-03T12:24:49.020Z,96.50
2022-08-03T12:29:58.638Z,99.90
2022-08-03T12:35:04.425Z,99.90
2022-08-03T12:40:10.519Z,96.30
2022-08-03T12:45:26.896Z,97.00
2022-08-03T12:50:33.228Z,94.10
2022-08-03T12:55:57.284Z,98.80
2022-08-03T13:01:09.965Z,98.80
2022-08-03T13:06:18.576Z,98.00
2022-08-03T13:11:52.502Z,99.90
2022-08-03T13:16:49.329Z,97.40
2022-08-03T13:22:03.138Z,95.30
2022-08-03T13:27:58.910Z,94.40
2022-08-03T13:32:30.607Z,95.90
2022-08-03T13:37:33.235Z,93.20
2022-08-03T13:42:36.724Z,95.30
2022-08-03T13:47:39.519Z,95.80
2022-08-03T13:52:42.147Z,94.50
2022-08-03T13:58:12.078Z,97.80
2022-08-03T14:03:14.180Z,97.30
2022-08-03T14:08:17.179Z,95.70
2022-08-03T14:13:19.710Z,95.30
2022-08-03T14:18:29.118Z,96.60
2022-08-03T14:23:38.004Z,95.50
2022-08-03T14:28:41.212Z,95.10
2022-08-03T14:33:43.624Z,95.90
2022-08-03T14:38:46.445Z,94.70
2022-08-03T14:44:01.669Z,96.40
2022-08-03T14:50:36.290Z,98.10
2022-08-03T14:54:31.012Z,99.10
2022-08-03T14:59:56.752Z,97.40
2022-08-03T15:04:56.521Z,97.20
2022-08-03T15:09:59.702Z,99.90
2022-08-03T15:15:05.125Z,99.10
2022-08-03T15:20:23.405Z,97.80
2022-08-03T15:26:03.694Z,97.10
2022-08-03T15:30:53.959Z,99.60
2022-08-03T15:35:56.675Z,99.50
2022-08-03T15:40:59.695Z,98.20
2022-08-03T15:46:28.303Z,99.90
2022-08-03T15:51:24.680Z,99.90
2022-08-03T15:56:27.622Z,99.90
2022-08-03T16:01:30.608Z,99.90
2022-08-03T16:06:35.782Z,99.90
2022-08-03T16:11:38.948Z,99.90
2022-08-03T16:16:41.643Z,99.60
2022-08-03T16:21:48.712Z,99.90
2022-08-03T16:26:52.901Z,99.90
2022-08-03T16:31:55.481Z,99.90
2022-08-03T16:36:57.956Z,99.60
2022-08-03T16:42:01.692Z,99.90
2022-08-03T16:47:04.493Z,99.90
2022-08-03T16:52:07.238Z,99.90
2022-08-03T16:57:09.929Z,99.90
2022-08-03T17:02:22.250Z,99.90
2022-08-03T17:07:29.655Z,99.90
2022-08-03T17:12:33.097Z,99.90
2022-08-03T17:17:37.558Z,99.90
2022-08-03T17:22:59.656Z,99.90
2022-08-03T17:28:49.200Z,99.90
2022-08-03T17:33:26.972Z,99.90
2022-08-03T17:38:40.434Z,99.90
2022-08-03T17:44:15.186Z,99.90
2022-08-03T17:49:24.886Z,99.90
2022-08-03T17:55:57.043Z,99.90
2022-08-03T18:02:00.628Z,99.90
2022-08-03T18:06:38.029Z,99.90
2022-08-03T18:12:01.624Z,99.90
2022-08-03T18:22:30.563Z,99.90
2022-08-03T18:27:45.436Z,99.90
2022-08-03T18:33:00.753Z,99.90
2022-08-03T18:38:04.076Z,99.90
2022-08-03T18:43:12.992Z,99.90
2022-08-03T18:48:46.410Z,99.90
2022-08-03T18:54:03.339Z,99.90
2022-08-03T18:59:30.832Z,99.90
2022-08-03T19:04:44.152Z,99.90
2022-08-03T19:09:58.514Z,99.90
2022-08-03T19:20:09.584Z,99.90
2022-08-03T19:25:12.242Z,99.90
2022-08-03T19:30:35.812Z,99.90
2022-08-03T19:35:51.105Z,99.90
2022-08-03T19:41:03.984Z,99.90
2022-08-03T19:51:16.820Z,99.90
2022-08-03T19:56:24.153Z,99.90
2022-08-03T20:01:28.158Z,99.90
2022-08-03T20:06:31.977Z,99.90
2022-08-03T20:11:43.695Z,99.90
2022-08-03T20:16:58.461Z,99.90
2022-08-03T20:22:01.402Z,99.90
2022-08-03T20:27:08.385Z,99.90
2022-08-03T20:32:10.914Z,99.90
2022-08-03T20:37:13.574Z,99.90
2022-08-03T20:47:50.742Z,99.90
2022-08-03T20:52:54.693Z,99.90
2022-08-03T20:57:59.592Z,99.90
2022-08-03T21:03:02.717Z,99.90
2022-08-03T21:08:07.518Z,99.90
2022-08-03T21:13:05.638Z,99.90
2022-08-03T21:13:07.251Z,99.90
2022-08-03T21:13:28.497Z,99.90
2022-08-03T21:18:35.096Z,99.90
2022-08-03T21:23:48.121Z,99.90
2022-08-03T21:28:55.468Z,99.90
2022-08-03T21:34:01.614Z,99.90
2022-08-03T21:39:08.491Z,99.90
2022-08-03T21:44:11.264Z,99.90
2022-08-03T21:50:04.749Z,99.90
2022-08-03T21:54:42.416Z,99.90
2022-08-03T21:59:57.113Z,99.90
2022-08-03T22:04:59.630Z,99.90
2022-08-03T22:10:05.231Z,99.90
2022-08-03T22:15:11.112Z,99.90
2022-08-03T22:20:15.117Z,99.90
2022-08-03T22:25:18.085Z,99.90
2022-08-03T22:30:20.813Z,99.90
2022-08-03T22:35:26.011Z,99.90
2022-08-03T22:40:28.842Z,99.90
2022-08-03T22:46:08.486Z,99.90
2022-08-03T22:50:55.881Z,99.90
2022-08-03T22:55:58.736Z,99.90
2022-08-03T23:01:07.646Z,99.90
2022-08-03T23:06:10.686Z,99.90
2022-08-03T23:11:15.374Z,99.90
2022-08-03T23:16:28.791Z,99.90
2022-08-03T23:21:53.466Z,99.90
2022-08-03T23:26:56.691Z,99.90
2022-08-03T23:32:01.839Z,99.90
2022-08-03T23:37:05.939Z,99.90
2022-08-03T23:42:10.166Z,99.90
2022-08-03T23:47:13.726Z,99.90
2022-08-03T23:52:22.000Z,99.90
2022-08-03T23:57:40.878Z,99.90
